Waterford, CT (06385)

11:53 PM EDT on April 25, 2017 (GMT -0400)
Waterford EOC | | Change Station

Elev 24 ft 41.34 °N, 72.14 °W | Updated 12 seconds ago

Rain
Rain
55.3 °F
Feels Like 55.3 °F
N
4.0
Wind Variable Wind from ENE
Gusts 4.0 mph

Today
High -- | Low -- °F
--% Chance of Precip.
Yesterday
High -- | Low -- °F
Precip. -- in
Pressure 29.97 in
Visibility 5.0 miles
Clouds Overcast 900 ft
Dew Point 55 °F
Humidity 98%
Rainfall 1.07 in
Snow Depth Not available.
5:53 AM 7:39 PM
Waning Crescent, 0% visible
METAR KGON 260256Z AUTO 07011KT 5SM -RA BR OVC009 13/12 A2997 RMK AO2 SLP147 P0022 60039 T01280117 58013
Pressure 29.97 in
Visibility 5.0 miles
Clouds Overcast 900 ft
Dew Point 55 °F
Humidity 98%
Rainfall 1.07 in
Snow Depth Not available.
5:53 AM 7:39 PM
Waning Crescent, 0% visible
METAR KGON 260256Z AUTO 07011KT 5SM -RA BR OVC009 13/12 A2997 RMK AO2 SLP147 P0022 60039 T01280117 58013

Get Severe Weather Alerts

Thanks for signing up!

Be on the lookout for a verification email in your inbox.

You'll start receiving the daily forecast at 8 AM.

×

10-Day Weather Forecast

Almanac

Astronomy

Apr. 25, 2017 Rise Set
Actual Time
Civil Twilight
Nautical Twilight
Astronomical Twilight
Moon
Length of Visible Light
Length of Day
Tomorrow will be .
, % of the Moon is Illuminated

Today's Extremes

State Highs State Lows

Community

WunderPhotos

WunderBlog® & News

Nearby

Air Quality

  Air Quality AQ Index Pollutant
Not available.

Snow Depth

Station Depth Elevation

Earthquake Activity

City Distance Mag. Time & Date
Minimum magnitude displayed is 2.5.

Coastal Water Temperatures

Place Temperature

Stations

Nearby Weather Stations

Station Location Temp. Windchill Dew Point Humidity Wind Precip. Elev Updated Type
                   

Watches & Warnings

There are currently no watches in effect.